Time;durP1;ratioP1;P1;durP2;ratioP2;P2;SDS_P1;SDS_P2;PMS_P1;PMS_P2;Temp;Humidity;BMP_temperature;BMP_pressure;BME280_temperature;BME280_humidity;BME280_pressure;Samples;Min_cycle;Max_cycle;Signal;HPM_P1;HPM_P2
2022/01/29 00:01:36;;;;;;;7.90;2.95;;;;;;;1.20;55.69;99029.31;5049099;28;20044;-75
2022/01/29 00:04:02;;;;;;;7.65;2.70;;;;;;;1.21;55.84;99033.69;5045234;28;20037;-76
2022/01/29 00:06:27;;;;;;;5.25;2.05;;;;;;;1.19;55.52;99027.69;5041713;28;20044;-73
2022/01/29 00:08:55;;;;;;;6.00;2.55;;;;;;;1.11;55.80;99028.72;5058973;28;20021;-76
2022/01/29 00:11:27;;;;;;;3.63;1.55;;;;;;;0.99;56.15;99028.53;5058542;28;20067;-78
2022/01/29 00:13:52;;;;;;;6.13;2.20;;;;;;;0.93;56.49;99029.34;5060572;28;20025;-75
2022/01/29 00:16:17;;;;;;;6.25;2.53;;;;;;;0.87;56.66;99027.50;5065386;28;20036;-76
2022/01/29 00:18:43;;;;;;;6.22;2.28;;;;;;;0.87;56.86;99040.97;5054597;28;20112;-76
2022/01/29 00:21:08;;;;;;;4.75;1.88;;;;;;;0.86;57.29;99047.38;5066470;28;20509;-75
2022/01/29 00:23:33;;;;;;;8.15;3.10;;;;;;;0.72;57.93;99056.44;5050301;28;20020;-75
2022/01/29 00:26:00;;;;;;;6.18;2.47;;;;;;;0.60;58.94;99060.78;5051342;28;20025;-76
2022/01/29 00:28:27;;;;;;;7.95;2.85;;;;;;;0.49;59.44;99069.47;5051299;28;20090;-76
2022/01/29 00:30:52;;;;;;;10.23;3.67;;;;;;;0.45;60.13;99071.72;5045223;28;20067;-77
2022/01/29 00:33:21;;;;;;;13.55;4.05;;;;;;;0.45;60.53;99069.03;5039445;28;20065;-75
2022/01/29 00:35:46;;;;;;;9.32;3.85;;;;;;;0.50;60.05;99065.75;5031531;28;20017;-76
2022/01/29 00:38:11;;;;;;;16.88;4.93;;;;;;;0.52;60.18;99080.66;5033599;28;20540;-76
2022/01/29 00:40:37;;;;;;;9.73;4.60;;;;;;;0.48;59.93;99075.88;5039544;28;20037;-75
2022/01/29 00:43:04;;;;;;;11.85;5.40;;;;;;;0.40;59.55;99071.53;5049806;28;20070;-75
2022/01/29 00:45:31;;;;;;;12.48;4.72;;;;;;;0.34;59.67;99079.56;5031220;28;20038;-75
2022/01/29 00:47:57;;;;;;;9.65;3.78;;;;;;;0.19;60.08;99076.22;5036218;28;20037;-76
2022/01/29 00:50:22;;;;;;;9.45;4.35;;;;;;;0.10;60.64;99075.53;5057994;28;20033;-75
2022/01/29 00:52:47;;;;;;;11.52;4.22;;;;;;;-0.01;61.38;99074.28;5051766;28;20113;-77
2022/01/29 00:55:13;;;;;;;13.40;4.35;;;;;;;0.06;61.62;99078.84;5041817;28;20398;-76
2022/01/29 00:57:40;;;;;;;10.98;4.50;;;;;;;0.05;61.83;99075.31;5031854;28;20707;-74
2022/01/29 01:00:09;;;;;;;13.32;4.75;;;;;;;-0.08;62.65;99069.88;5031186;28;20041;-76
2022/01/29 01:02:34;;;;;;;11.05;4.68;;;;;;;-0.22;63.33;99074.34;5030418;28;20482;-74
2022/01/29 01:05:00;;;;;;;13.02;4.97;;;;;;;-0.27;63.86;99090.25;5031652;28;20025;-77
2022/01/29 01:07:26;;;;;;;9.98;4.47;;;;;;;-0.29;64.12;99089.63;5037602;28;20025;-76
2022/01/29 01:09:51;;;;;;;11.65;5.22;;;;;;;-0.37;65.30;99095.16;5050568;28;20025;-77
2022/01/29 01:12:17;;;;;;;10.85;4.72;;;;;;;-0.45;65.56;99100.69;5050912;28;20025;-73
2022/01/29 01:14:42;;;;;;;13.10;4.85;;;;;;;-0.48;66.13;99101.09;5049416;28;20124;-76
2022/01/29 01:17:08;;;;;;;11.75;4.18;;;;;;;-0.55;67.15;99092.16;5050441;28;20037;-74
2022/01/29 01:19:33;;;;;;;9.15;4.07;;;;;;;-0.59;67.73;99096.25;5050341;28;20018;-74
2022/01/29 01:21:59;;;;;;;9.48;4.35;;;;;;;-0.70;68.21;99091.44;5049181;28;20025;-76
2022/01/29 01:24:24;;;;;;;12.82;5.22;;;;;;;-0.75;68.59;99077.75;5050349;28;20017;-75
2022/01/29 01:26:51;;;;;;;15.05;4.72;;;;;;;-0.70;68.78;99078.00;5050380;28;20029;-75
2022/01/29 01:29:17;;;;;;;12.48;4.70;;;;;;;-0.77;69.07;99069.06;5050148;28;20025;-75
2022/01/29 01:31:45;;;;;;;8.38;4.13;;;;;;;-0.74;70.39;99071.34;5049124;28;20051;-75
2022/01/29 01:34:12;;;;;;;10.30;4.45;;;;;;;-0.84;70.01;99062.78;5051056;28;20075;-74
2022/01/29 01:36:48;;;;;;;8.80;3.88;;;;;;;-0.84;69.74;99057.41;5050446;28;20389;-74
2022/01/29 01:39:18;;;;;;;13.50;4.47;;;;;;;-0.86;70.14;99057.63;5049399;28;20104;-76
2022/01/29 01:41:53;;;;;;;13.35;4.70;;;;;;;-1.02;71.53;99060.59;5031649;28;20083;-75
2022/01/29 01:44:19;;;;;;;9.48;3.55;;;;;;;-1.12;71.65;99052.88;5030518;28;20529;-77
2022/01/29 01:46:44;;;;;;;10.27;3.35;;;;;;;-1.12;72.63;99060.94;5029720;28;20030;-74
2022/01/29 01:49:10;;;;;;;12.23;5.38;;;;;;;-1.22;73.13;99057.75;5030660;28;20487;-77
2022/01/29 01:51:37;;;;;;;15.93;5.60;;;;;;;-1.16;72.18;99064.22;5048206;28;20497;-75
2022/01/29 01:54:03;;;;;;;13.52;5.28;;;;;;;-1.12;71.56;99060.94;5030609;28;20024;-75
2022/01/29 01:56:28;;;;;;;13.25;5.05;;;;;;;-1.02;71.81;99067.81;5030362;28;20073;-75
2022/01/29 01:58:57;;;;;;;11.57;5.28;;;;;;;-0.98;72.05;99055.69;5047700;28;20079;-75
2022/01/29 02:01:23;;;;;;;13.45;5.50;;;;;;;-1.06;72.52;99048.59;5050501;28;20116;-74
2022/01/29 02:03:48;;;;;;;13.02;5.47;;;;;;;-1.19;72.75;99052.00;5049608;28;20033;-75
2022/01/29 02:06:15;;;;;;;16.88;5.40;;;;;;;-1.15;73.16;99058.63;5048878;28;20052;-74
2022/01/29 02:08:40;;;;;;;12.95;5.55;;;;;;;-1.15;73.90;99055.94;5050163;28;20394;-74
2022/01/29 02:11:06;;;;;;;11.05;5.07;;;;;;;-1.17;73.09;99066.06;5053701;28;20040;-74
2022/01/29 02:13:32;;;;;;;13.32;6.00;;;;;;;-1.13;73.26;99066.50;5053979;28;20033;-75
2022/01/29 02:15:58;;;;;;;16.55;5.68;;;;;;;-1.18;74.05;99064.38;5054003;28;20029;-75
2022/01/29 02:18:24;;;;;;;11.95;5.78;;;;;;;-1.14;73.78;99065.69;5053829;28;20017;-76
2022/01/29 02:20:51;;;;;;;14.43;5.57;;;;;;;-1.19;74.16;99062.72;5053821;28;20780;-75
2022/01/29 02:23:20;;;;;;;15.65;5.57;;;;;;;-1.24;74.41;99075.06;5053977;28;20029;-78
2022/01/29 02:25:47;;;;;;;10.88;5.03;;;;;;;-1.34;74.46;99085.28;5053765;28;20040;-74
2022/01/29 02:28:16;;;;;;;13.52;5.80;;;;;;;-1.44;75.38;99069.50;5053656;28;20025;-76
2022/01/29 02:30:44;;;;;;;13.38;5.90;;;;;;;-1.41;75.99;99079.03;5054679;28;20560;-77
2022/01/29 02:33:12;;;;;;;13.18;5.18;;;;;;;-1.43;75.72;99092.63;5054185;28;20021;-76
2022/01/29 02:35:40;;;;;;;12.57;5.40;;;;;;;-1.43;75.91;99091.78;5053595;28;20116;-75
2022/01/29 02:38:06;;;;;;;14.15;4.90;;;;;;;-1.34;75.09;99091.47;5053502;28;20492;-75
2022/01/29 02:40:36;;;;;;;10.70;4.80;;;;;;;-1.35;75.35;99087.16;5053575;28;20102;-76
2022/01/29 02:43:35;;;;;;;12.65;4.70;;;;;;;-1.35;75.43;99100.56;5053400;28;20405;-75
2022/01/29 02:46:18;;;;;;;12.98;4.78;;;;;;;-1.39;76.06;99099.28;5052509;28;20486;-76
2022/01/29 02:48:49;;;;;;;10.02;4.72;;;;;;;-1.32;76.73;99104.72;5051959;28;20036;-76
2022/01/29 02:51:15;;;;;;;8.35;4.70;;;;;;;-1.27;76.44;99111.16;5052216;28;20036;-76
2022/01/29 02:53:40;;;;;;;11.95;5.40;;;;;;;-1.34;76.55;99109.44;5052237;28;20033;-75
2022/01/29 02:56:07;;;;;;;8.18;4.07;;;;;;;-1.31;77.20;99111.72;5054228;28;20498;-75
2022/01/29 02:58:33;;;;;;;13.82;4.72;;;;;;;-1.33;77.21;99108.41;5057316;28;20021;-76
2022/01/29 03:00:58;;;;;;;8.98;3.88;;;;;;;-1.43;77.41;99098.00;5056003;28;20036;-75
2022/01/29 03:03:24;;;;;;;9.32;4.15;;;;;;;-1.35;77.01;99097.06;5053493;28;20416;-76
2022/01/29 03:05:51;;;;;;;8.50;3.90;;;;;;;-1.33;76.78;99101.19;5053031;28;20082;-77
2022/01/29 03:08:16;;;;;;;11.15;4.00;;;;;;;-1.41;76.99;99090.56;5052890;28;20025;-75
2022/01/29 03:10:42;;;;;;;9.32;4.20;;;;;;;-1.31;76.52;99101.81;5052808;28;20032;-77
2022/01/29 03:13:07;;;;;;;13.20;4.35;;;;;;;-1.33;75.95;99103.88;5053276;28;20036;-76
2022/01/29 03:15:33;;;;;;;7.90;3.33;;;;;;;-1.33;76.66;99098.50;5053230;28;20028;-76
2022/01/29 03:17:58;;;;;;;8.93;4.10;;;;;;;-1.32;77.40;99100.19;5052894;28;20486;-79
2022/01/29 03:20:24;;;;;;;10.70;4.10;;;;;;;-1.37;77.41;99109.81;5051254;28;20021;-76
2022/01/29 03:22:49;;;;;;;8.98;4.38;;;;;;;-1.30;77.26;99106.19;5050846;28;20509;-75
2022/01/29 03:25:16;;;;;;;12.13;4.20;;;;;;;-1.28;77.14;99112.19;5052262;28;20056;-75
2022/01/29 03:27:42;;;;;;;10.13;4.70;;;;;;;-1.22;77.09;99099.84;5049348;28;20021;-74
2022/01/29 03:30:08;;;;;;;9.38;3.50;;;;;;;-1.22;76.89;99098.00;5048197;28;20367;-74
2022/01/29 03:32:34;;;;;;;8.52;4.28;;;;;;;-1.32;76.89;99089.47;5052623;28;20116;-75
2022/01/29 03:35:00;;;;;;;11.27;4.45;;;;;;;-1.38;77.29;99087.50;5052830;28;20029;-74
2022/01/29 03:37:25;;;;;;;10.40;4.45;;;;;;;-1.33;77.63;99095.00;5050962;28;20557;-75
2022/01/29 03:39:52;;;;;;;10.82;4.97;;;;;;;-1.31;76.75;99085.72;5052605;28;20031;-75
2022/01/29 03:42:17;;;;;;;8.93;4.28;;;;;;;-1.21;76.67;99080.03;5052804;28;20474;-74
2022/01/29 03:44:43;;;;;;;16.77;4.85;;;;;;;-1.19;76.71;99097.59;5051411;28;20055;-75
2022/01/29 03:47:09;;;;;;;10.50;4.93;;;;;;;-1.25;77.12;99095.69;5050801;28;20486;-75
2022/01/29 03:49:34;;;;;;;11.95;4.70;;;;;;;-1.33;76.73;99097.69;5051903;28;20043;-76
2022/01/29 03:52:00;;;;;;;13.10;5.47;;;;;;;-1.30;76.71;99098.13;5050476;28;20083;-74
2022/01/29 03:54:25;;;;;;;10.65;5.03;;;;;;;-1.22;77.04;99100.69;5051808;28;20732;-75
2022/01/29 03:56:51;;;;;;;13.75;5.53;;;;;;;-1.28;77.25;99101.44;5051491;28;20049;-74
2022/01/29 03:59:16;;;;;;;13.70;5.70;;;;;;;-1.36;77.63;99101.59;5051534;28;20684;-75
2022/01/29 04:01:41;;;;;;;13.20;5.63;;;;;;;-1.18;76.96;99101.13;5051675;28;20025;-75
2022/01/29 04:04:07;;;;;;;12.50;5.65;;;;;;;-1.22;77.10;99106.03;5052237;28;20024;-75
2022/01/29 04:06:32;;;;;;;14.65;5.55;;;;;;;-1.08;76.36;99107.00;5051956;28;20503;-75
2022/01/29 04:09:02;;;;;;;14.43;5.78;;;;;;;-1.08;76.44;99098.97;5051602;28;20037;-75
2022/01/29 04:11:28;;;;;;;13.07;5.63;;;;;;;-1.17;76.84;99102.78;5051740;28;20025;-74
2022/01/29 04:13:53;;;;;;;12.48;5.95;;;;;;;-1.20;76.88;99108.56;5051917;28;20025;-75
2022/01/29 04:16:19;;;;;;;12.27;5.55;;;;;;;-1.22;77.71;99108.72;5051666;28;20084;-74
2022/01/29 04:18:44;;;;;;;11.88;5.50;;;;;;;-1.10;77.81;99104.50;5050793;28;20504;-75
2022/01/29 04:21:10;;;;;;;15.80;5.30;;;;;;;-1.16;78.75;99120.56;5051513;28;20032;-76
2022/01/29 04:23:36;;;;;;;18.92;5.60;;;;;;;-1.13;78.74;99125.56;5053563;28;20029;-77
2022/01/29 04:26:04;;;;;;;14.75;5.25;;;;;;;-1.24;78.38;99112.63;5053986;28;20025;-76
2022/01/29 04:28:35;;;;;;;12.32;6.13;;;;;;;-1.13;78.50;99118.31;5053928;28;20029;-76
2022/01/29 04:31:06;;;;;;;13.02;5.50;;;;;;;-1.18;78.64;99111.88;5051622;28;20033;-76
2022/01/29 04:33:32;;;;;;;11.70;5.28;;;;;;;-1.25;78.99;99110.97;5050457;28;20021;-75
2022/01/29 04:35:59;;;;;;;13.15;5.57;;;;;;;-1.23;79.00;99115.13;5052952;28;20094;-77
2022/01/29 04:38:26;;;;;;;12.73;5.22;;;;;;;-1.27;80.07;99113.84;5051816;28;20421;-75
2022/01/29 04:40:52;;;;;;;9.35;4.47;;;;;;;-1.33;80.72;99111.94;5050078;28;20025;-75
2022/01/29 04:43:18;;;;;;;18.63;5.20;;;;;;;-1.41;81.68;99122.75;5051118;28;20425;-75
2022/01/29 04:45:44;;;;;;;17.13;5.10;;;;;;;-1.50;82.75;99120.44;5051434;28;20029;-75
2022/01/29 04:48:09;;;;;;;10.68;4.85;;;;;;;-1.62;83.84;99123.59;5049667;28;20075;-75
2022/01/29 04:50:35;;;;;;;13.25;4.32;;;;;;;-1.66;84.86;99119.59;5051208;28;20029;-74
2022/01/29 04:53:00;;;;;;;11.38;5.10;;;;;;;-1.63;84.60;99115.75;5051046;28;20059;-75
2022/01/29 04:55:25;;;;;;;11.07;5.28;;;;;;;-1.58;84.24;99109.78;5036377;28;20403;-74
2022/01/29 04:57:52;;;;;;;10.07;4.18;;;;;;;-1.54;84.26;99106.56;5030743;28;20398;-75
2022/01/29 05:00:21;;;;;;;11.98;4.80;;;;;;;-1.63;84.62;99118.44;5036213;28;20068;-76
2022/01/29 05:02:47;;;;;;;14.23;4.80;;;;;;;-1.67;85.10;99117.97;5049704;28;20486;-75
2022/01/29 05:05:13;;;;;;;10.65;5.18;;;;;;;-1.67;85.04;99117.13;5048902;28;20029;-74
2022/01/29 05:07:38;;;;;;;11.43;5.35;;;;;;;-1.77;85.56;99121.94;5049165;28;20021;-76
2022/01/29 05:10:04;;;;;;;14.75;4.63;;;;;;;-1.71;85.72;99121.19;5050124;28;20094;-77
2022/01/29 05:12:40;;;;;;;13.43;5.30;;;;;;;-1.58;84.98;99123.19;5055177;28;20021;-75
2022/01/29 05:28:26;;;;;;;10.20;4.97;;;;;;;-1.46;84.50;99110.94;5050407;28;20494;-75
2022/01/29 05:30:52;;;;;;;12.07;5.75;;;;;;;-1.36;84.28;99109.63;5049915;28;20021;-76
2022/01/29 05:33:17;;;;;;;23.35;6.15;;;;;;;-1.43;84.54;99114.09;5039536;28;20072;-76
2022/01/29 05:35:43;;;;;;;10.48;5.43;;;;;;;-1.49;85.05;99122.06;5050668;28;20091;-75
2022/01/29 05:38:08;;;;;;;11.23;5.00;;;;;;;-1.38;84.94;99135.81;5035266;28;20060;-75
2022/01/29 05:40:33;;;;;;;13.82;5.95;;;;;;;-1.47;85.46;99142.31;5029108;28;20475;-74
2022/01/29 05:42:59;;;;;;;16.48;5.93;;;;;;;-1.52;85.60;99141.22;5043381;28;20078;-76
2022/01/29 05:45:24;;;;;;;14.05;6.22;;;;;;;-1.54;85.88;99146.78;5052987;28;20052;-75
2022/01/29 05:47:50;;;;;;;17.60;6.03;;;;;;;-1.59;86.20;99143.81;5054145;28;20427;-76
2022/01/29 05:50:15;;;;;;;17.15;6.15;;;;;;;-1.73;86.33;99153.56;5044104;28;20147;-74
2022/01/29 05:52:40;;;;;;;12.27;6.03;;;;;;;-1.75;86.32;99138.66;5043790;28;20033;-75
2022/01/29 05:55:06;;;;;;;12.23;5.63;;;;;;;-1.76;86.98;99139.72;5032396;28;20033;-76
2022/01/29 05:57:32;;;;;;;13.40;5.97;;;;;;;-1.78;86.88;99141.72;5044208;28;20126;-76
2022/01/29 05:59:57;;;;;;;15.27;7.82;;;;;;;-1.77;86.38;99151.44;5053280;28;20041;-74
2022/01/29 06:02:22;;;;;;;15.27;7.60;;;;;;;-1.89;86.21;99140.38;5051979;28;20132;-76
2022/01/29 06:04:48;;;;;;;21.75;9.30;;;;;;;-1.93;86.32;99135.56;5052410;28;20017;-76
2022/01/29 06:07:13;;;;;;;23.88;9.05;;;;;;;-1.90;86.52;99144.06;5051944;28;20029;-75
2022/01/29 06:09:39;;;;;;;24.50;9.02;;;;;;;-1.93;86.61;99143.59;5039434;28;20033;-75
2022/01/29 06:12:04;;;;;;;24.90;9.90;;;;;;;-1.63;85.84;99145.25;5033630;28;20025;-74
2022/01/29 06:14:30;;;;;;;21.55;8.52;;;;;;;-1.55;85.53;99149.66;5033709;28;20029;-77
2022/01/29 06:16:55;;;;;;;19.08;7.72;;;;;;;-1.56;86.15;99148.81;5035794;28;20086;-75
2022/01/29 06:19:21;;;;;;;23.27;7.90;;;;;;;-1.59;86.00;99146.50;5034791;28;20024;-75
2022/01/29 06:21:46;;;;;;;24.15;8.57;;;;;;;-1.56;86.35;99151.50;5032519;28;20036;-73
2022/01/29 06:24:11;;;;;;;26.88;8.98;;;;;;;-1.56;86.31;99162.22;5033027;28;20021;-76
2022/01/29 06:26:37;;;;;;;21.88;8.27;;;;;;;-1.63;86.59;99158.66;5033470;28;20052;-75
2022/01/29 06:29:04;;;;;;;23.73;8.75;;;;;;;-1.61;87.16;99172.69;5034357;28;20036;-76
2022/01/29 06:31:30;;;;;;;18.67;8.35;;;;;;;-1.60;87.13;99170.84;5033314;28;20033;-74
2022/01/29 06:33:55;;;;;;;17.90;7.70;;;;;;;-1.60;88.37;99178.88;5033273;28;20175;-76
2022/01/29 06:36:21;;;;;;;17.23;7.65;;;;;;;-1.55;87.30;99190.72;5032904;28;20052;-75
2022/01/29 06:38:46;;;;;;;17.50;7.85;;;;;;;-1.55;87.31;99198.75;5033183;28;20039;-76
2022/01/29 06:41:11;;;;;;;25.98;9.60;;;;;;;-1.56;87.71;99206.97;5031356;28;20030;-76
2022/01/29 06:43:37;;;;;;;18.02;7.90;;;;;;;-1.40;87.11;99199.56;5032965;28;20022;-75
2022/01/29 06:46:02;;;;;;;18.15;7.57;;;;;;;-1.46;86.98;99207.53;5044086;28;20043;-76
2022/01/29 06:48:28;;;;;;;15.70;7.07;;;;;;;-1.37;86.33;99203.72;5051634;28;20501;-75
2022/01/29 06:50:53;;;;;;;14.98;6.07;;;;;;;-1.20;85.40;99211.38;5053143;28;20021;-74
2022/01/29 06:53:19;;;;;;;14.20;5.88;;;;;;;-1.09;84.44;99200.13;5052923;28;20099;-75
2022/01/29 06:55:44;;;;;;;12.25;5.95;;;;;;;-1.03;83.70;99192.34;5051423;28;20025;-76
2022/01/29 06:58:10;;;;;;;15.30;7.03;;;;;;;-0.85;82.67;99195.41;5052725;28;20112;-75
2022/01/29 07:00:35;;;;;;;18.73;7.05;;;;;;;-0.74;82.34;99201.09;5051843;28;20397;-75
2022/01/29 07:03:01;;;;;;;18.42;7.88;;;;;;;-0.55;81.76;99189.69;5052850;28;20028;-75
2022/01/29 07:05:26;;;;;;;22.08;8.95;;;;;;;-0.42;81.55;99191.66;5053179;28;20057;-75
2022/01/29 07:07:52;;;;;;;36.70;11.50;;;;;;;-0.21;79.55;99196.16;5051682;28;20067;-78
2022/01/29 07:10:17;;;;;;;22.05;10.30;;;;;;;-0.08;79.09;99196.25;5051495;28;20079;-76
2022/01/29 07:12:43;;;;;;;20.33;8.50;;;;;;;0.36;77.26;99198.56;5053052;28;20075;-75
2022/01/29 07:15:11;;;;;;;17.10;7.35;;;;;;;1.43;72.13;99203.03;5051560;28;20592;-74
2022/01/29 07:17:37;;;;;;;19.83;7.53;;;;;;;2.03;69.29;99212.78;5052984;28;20031;-74
2022/01/29 07:20:04;;;;;;;16.92;7.40;;;;;;;1.94;67.99;99205.13;5053659;28;20470;-74
2022/01/29 07:22:29;;;;;;;16.10;6.47;;;;;;;1.47;69.06;99209.66;5057527;28;20029;-75
2022/01/29 07:24:55;;;;;;;19.15;8.63;;;;;;;0.98;71.04;99210.00;5061584;28;20055;-75
2022/01/29 07:27:20;;;;;;;21.40;8.85;;;;;;;0.45;73.31;99202.75;5054193;28;20029;-75
2022/01/29 07:29:45;;;;;;;17.00;7.38;;;;;;;0.12;75.88;99199.06;5051727;28;20436;-75
2022/01/29 07:32:11;;;;;;;31.77;14.90;;;;;;;0.23;76.11;99203.88;5052505;28;20029;-76
2022/01/29 07:34:37;;;;;;;20.15;8.48;;;;;;;0.31;75.46;99201.88;5052683;28;20382;-75
2022/01/29 07:37:03;;;;;;;36.42;18.88;;;;;;;0.46;73.96;99199.03;5052140;28;20406;-74
2022/01/29 07:39:29;;;;;;;17.67;7.20;;;;;;;0.59;73.13;99199.09;5052116;28;20028;-76
2022/01/29 07:41:55;;;;;;;18.10;7.18;;;;;;;0.75;73.12;99206.81;5052133;28;20045;-74
2022/01/29 07:44:21;;;;;;;17.20;6.72;;;;;;;0.79;72.23;99221.53;5052183;28;20028;-75
2022/01/29 07:46:47;;;;;;;14.88;6.75;;;;;;;0.88;71.38;99219.47;5052287;28;20017;-74
2022/01/29 07:49:12;;;;;;;16.33;7.10;;;;;;;0.76;71.52;99208.47;5052103;28;20028;-75
2022/01/29 07:51:39;;;;;;;27.02;8.98;;;;;;;0.70;72.60;99209.28;5052055;28;20051;-76
2022/01/29 07:54:05;;;;;;;42.10;16.13;;;;;;;0.77;72.02;99212.84;5050355;28;20507;-77
2022/01/29 07:56:31;;;;;;;50.35;16.70;;;;;;;0.76;72.51;99213.03;5050389;28;20047;-77
2022/01/29 07:58:57;;;;;;;25.17;10.68;;;;;;;0.72;72.55;99209.91;5051748;28;20024;-75
2022/01/29 08:01:22;;;;;;;30.10;11.43;;;;;;;0.73;72.83;99214.25;5052019;28;20021;-76
2022/01/29 08:03:50;;;;;;;17.52;7.57;;;;;;;0.80;73.27;99211.59;5051704;28;20123;-74
2022/01/29 08:06:17;;;;;;;21.25;8.55;;;;;;;0.84;72.85;99221.78;5053060;28;20392;-76
2022/01/29 08:08:43;;;;;;;15.18;6.57;;;;;;;0.84;72.57;99216.41;5054333;28;20024;-83
2022/01/29 08:11:10;;;;;;;20.00;5.88;;;;;;;0.84;72.25;99223.63;5053807;28;20482;-79
2022/01/29 08:13:35;;;;;;;18.42;6.63;;;;;;;0.79;71.65;99232.31;5052938;28;20393;-82
2022/01/29 08:16:02;;;;;;;20.27;6.07;;;;;;;0.78;72.45;99229.81;5052406;28;20025;-77
2022/01/29 08:18:27;;;;;;;12.95;5.68;;;;;;;0.86;71.28;99227.78;5055072;28;20028;-79
2022/01/29 08:20:53;;;;;;;15.23;5.30;;;;;;;0.90;71.05;99223.66;5052358;28;20021;-76
2022/01/29 08:23:18;;;;;;;13.70;5.75;;;;;;;0.94;70.51;99224.09;5053632;28;20051;-77
2022/01/29 08:25:44;;;;;;;20.02;6.43;;;;;;;1.03;69.68;99229.06;5051037;28;20020;-77
2022/01/29 08:28:09;;;;;;;12.93;6.10;;;;;;;1.07;70.25;99238.41;5052884;28;20040;-79
2022/01/29 08:30:35;;;;;;;23.35;7.30;;;;;;;1.26;70.75;99234.09;5052049;28;20024;-80
2022/01/29 08:33:00;;;;;;;16.52;6.72;;;;;;;1.48;69.63;99223.97;5052912;28;20025;-76
2022/01/29 08:35:26;;;;;;;15.27;6.35;;;;;;;1.91;68.00;99224.41;5053940;28;20021;-78
2022/01/29 08:37:54;;;;;;;13.27;6.40;;;;;;;2.31;65.83;99233.28;5050869;28;20043;-76
2022/01/29 08:40:20;;;;;;;19.52;9.30;;;;;;;2.65;63.58;99232.97;5053686;28;20082;-77
2022/01/29 08:42:46;;;;;;;18.33;8.02;;;;;;;2.72;64.21;99225.69;5051771;28;20025;-80
2022/01/29 08:45:13;;;;;;;13.43;6.38;;;;;;;2.84;63.11;99228.56;5045662;28;20025;-75
2022/01/29 08:47:39;;;;;;;15.88;7.90;;;;;;;3.01;60.61;99227.84;5049975;28;20029;-76
2022/01/29 08:50:05;;;;;;;17.33;6.85;;;;;;;2.80;62.15;99233.53;5050449;28;20044;-75
2022/01/29 08:52:31;;;;;;;16.90;6.72;;;;;;;2.77;61.97;99228.56;5050375;28;20034;-77
2022/01/29 08:54:56;;;;;;;15.45;7.50;;;;;;;2.55;61.52;99221.78;5050687;28;20029;-75
2022/01/29 08:57:22;;;;;;;18.48;6.97;;;;;;;2.22;62.53;99223.75;5050647;28;20049;-76
2022/01/29 08:59:51;;;;;;;19.67;6.97;;;;;;;2.07;63.39;99216.72;5047053;28;20111;-77
2022/01/29 09:02:16;;;;;;;16.83;7.55;;;;;;;2.17;63.49;99217.13;5049366;28;20037;-75
2022/01/29 09:04:42;;;;;;;20.75;7.82;;;;;;;2.31;63.33;99211.69;5047752;28;20486;-75
2022/01/29 09:07:09;;;;;;;15.25;6.88;;;;;;;2.51;61.87;99218.69;5047721;28;20029;-76
2022/01/29 09:09:35;;;;;;;19.60;6.75;;;;;;;2.72;60.79;99214.88;5047638;28;20028;-77
2022/01/29 09:12:01;;;;;;;19.95;6.97;;;;;;;2.80;62.82;99206.53;5045734;28;20120;-76
2022/01/29 09:14:30;;;;;;;16.23;6.80;;;;;;;3.05;60.81;99210.16;5049185;28;20057;-79
2022/01/29 09:16:55;;;;;;;22.75;7.97;;;;;;;3.15;60.54;99215.94;5046886;28;20094;-75
2022/01/29 09:19:21;;;;;;;20.92;8.30;;;;;;;3.51;59.85;99203.66;5047169;28;20472;-75
2022/01/29 09:21:46;;;;;;;21.88;8.25;;;;;;;4.86;57.18;99208.94;5046513;28;20063;-77
2022/01/29 09:24:12;;;;;;;23.05;8.98;;;;;;;5.44;54.25;99195.63;5047455;28;20029;-74
2022/01/29 09:26:37;;;;;;;24.65;7.25;;;;;;;5.90;55.25;99205.78;5046978;28;20382;-75
2022/01/29 09:29:03;;;;;;;19.88;8.40;;;;;;;6.42;51.54;99204.03;5047344;28;20068;-75
2022/01/29 09:31:29;;;;;;;17.90;9.35;;;;;;;7.04;50.36;99206.97;5048180;28;20033;-75
2022/01/29 09:33:54;;;;;;;16.63;7.15;;;;;;;7.28;46.82;99203.94;5049660;28;20032;-75
2022/01/29 09:36:21;;;;;;;22.40;7.28;;;;;;;7.75;46.50;99200.97;5054168;28;20029;-78
2022/01/29 09:38:47;;;;;;;18.30;7.93;;;;;;;8.13;45.43;99200.22;5048171;28;20513;-74
2022/01/29 09:41:18;;;;;;;18.38;8.70;;;;;;;7.86;49.48;99210.97;5041460;28;20033;-82
2022/01/29 09:43:46;;;;;;;16.13;7.82;;;;;;;6.58;48.32;99207.94;5043618;28;20022;-79
2022/01/29 09:46:15;;;;;;;19.65;8.93;;;;;;;6.27;49.31;99207.22;5047695;28;20025;-76
2022/01/29 09:48:42;;;;;;;23.55;10.57;;;;;;;6.39;49.70;99199.88;5045571;28;20092;-86
2022/01/29 09:51:12;;;;;;;19.55;9.48;;;;;;;6.67;48.87;99206.50;5049755;28;20055;-89
2022/01/29 09:53:38;;;;;;;21.85;9.85;;;;;;;7.46;47.60;99195.56;5052736;28;20033;-87
2022/01/29 09:56:03;;;;;;;32.03;11.00;;;;;;;7.14;47.50;99202.53;5055523;28;20053;-87
2022/01/29 09:58:29;;;;;;;28.67;13.20;;;;;;;8.14;46.96;99196.44;5052325;28;20021;-75
2022/01/29 10:00:54;;;;;;;33.65;10.90;;;;;;;8.68;45.73;99189.34;5050209;28;20021;-77
2022/01/29 10:03:20;;;;;;;28.08;12.25;;;;;;;9.07;44.14;99190.94;5054609;28;20025;-77
2022/01/29 10:05:51;;;;;;;28.55;12.30;;;;;;;10.09;42.40;99185.34;5047823;28;20025;-74
2022/01/29 10:08:18;;;;;;;23.63;10.18;;;;;;;9.99;40.90;99183.38;5048428;28;20087;-80
2022/01/29 10:10:47;;;;;;;26.98;10.27;;;;;;;9.01;41.96;99175.56;5042361;28;20029;-80
2022/01/29 10:13:36;;;;;;;22.88;10.38;;;;;;;7.47;45.14;99166.44;5053262;28;20017;-77
2022/01/29 10:16:05;;;;;;;20.75;9.50;;;;;;;6.91;46.46;99161.84;5032072;28;20033;-76
2022/01/29 10:18:32;;;;;;;25.98;8.70;;;;;;;6.56;46.98;99163.81;5058561;28;20128;-77
2022/01/29 10:21:14;;;;;;;23.48;8.98;;;;;;;6.21;47.76;99159.28;5048032;28;20079;-75
2022/01/29 10:23:41;;;;;;;25.02;8.57;;;;;;;5.38;50.11;99154.00;5056169;28;20025;-79
2022/01/29 10:26:09;;;;;;;19.40;8.52;;;;;;;5.00;51.65;99141.84;5057435;28;20068;-76
2022/01/29 10:28:36;;;;;;;19.60;8.60;;;;;;;4.45;53.42;99138.41;5040191;28;20473;-76
2022/01/29 10:31:07;;;;;;;26.30;9.70;;;;;;;4.61;53.67;99140.47;5058181;28;20057;-75
2022/01/29 10:33:42;;;;;;;18.38;8.52;;;;;;;4.28;53.57;99140.88;5048020;28;20029;-76
2022/01/29 10:36:09;;;;;;;23.50;7.88;;;;;;;4.11;53.46;99135.22;5064190;28;20107;-76
2022/01/29 10:38:41;;;;;;;17.05;6.80;;;;;;;3.98;53.98;99134.56;5051248;28;20029;-75
2022/01/29 10:41:11;;;;;;;14.35;6.55;;;;;;;3.98;53.82;99137.25;5056425;28;20111;-76
2022/01/29 10:44:10;;;;;;;14.23;6.55;;;;;;;4.22;53.24;99131.78;5072672;28;20043;-77
2022/01/29 10:46:44;;;;;;;17.73;6.70;;;;;;;4.13;53.08;99126.88;5057293;28;20040;-75
2022/01/29 10:49:28;;;;;;;12.23;6.03;;;;;;;4.60;52.08;99122.59;5054633;28;20032;-73
2022/01/29 10:51:54;;;;;;;13.30;6.13;;;;;;;4.16;52.45;99118.31;5046800;28;20049;-79
2022/01/29 10:54:20;;;;;;;15.27;6.40;;;;;;;4.30;52.37;99111.69;5046937;28;20033;-80
2022/01/29 10:56:54;;;;;;;11.65;5.93;;;;;;;4.69;51.65;99100.38;5050884;28;20049;-79
2022/01/29 10:59:20;;;;;;;14.90;6.22;;;;;;;4.88;51.22;99093.00;5042357;28;20036;-75
2022/01/29 11:01:53;;;;;;;69.20;28.13;;;;;;;5.11;50.77;99098.47;5061444;28;20020;-75
2022/01/29 11:04:19;;;;;;;93.60;51.33;;;;;;;5.12;50.12;99094.72;5075503;28;20489;-81
2022/01/29 11:06:46;;;;;;;14.73;6.43;;;;;;;5.26;50.04;99090.72;5056331;28;20142;-75
2022/01/29 11:09:12;;;;;;;22.30;8.80;;;;;;;5.66;49.09;99085.47;5066589;28;20409;-76
2022/01/29 11:11:40;;;;;;;12.73;7.13;;;;;;;5.80;48.26;99086.88;5053091;28;20021;-88
2022/01/29 11:14:07;;;;;;;19.00;7.25;;;;;;;6.07;47.98;99081.00;5064339;28;20517;-77
2022/01/29 11:16:34;;;;;;;15.57;7.43;;;;;;;6.04;47.92;99065.19;5069107;28;20393;-75
2022/01/29 11:19:00;;;;;;;12.85;6.75;;;;;;;5.96;48.59;99063.66;5048135;28;20052;-79
2022/01/29 11:21:26;;;;;;;15.02;6.50;;;;;;;6.12;47.07;99062.91;5045922;28;20103;-76
2022/01/29 11:23:53;;;;;;;14.23;6.22;;;;;;;6.26;46.48;99060.78;5051085;28;20025;-75
2022/01/29 11:26:19;;;;;;;12.50;6.32;;;;;;;6.23;46.14;99058.53;5060840;28;20036;-76
2022/01/29 11:28:44;;;;;;;15.60;6.85;;;;;;;6.06;46.97;99052.19;5055964;28;20033;-78
2022/01/29 11:31:16;;;;;;;15.10;5.90;;;;;;;6.03;46.78;99039.91;5068359;28;20031;-78
2022/01/29 11:33:59;;;;;;;11.77;5.97;;;;;;;5.85;47.74;99037.31;5052169;28;20453;-75
2022/01/29 11:36:49;;;;;;;20.90;6.15;;;;;;;5.86;47.60;99030.84;5052122;28;20032;-78
2022/01/29 11:39:22;;;;;;;15.32;6.22;;;;;;;5.55;48.10;99028.47;5041797;28;20504;-77
2022/01/29 11:42:13;;;;;;;13.52;6.70;;;;;;;5.20;48.82;99017.63;5073097;28;20024;-75